Meath Environmental Platform

Observations for Trim Market St

Time AQI Temp °C Hum % Pres Pa CO μg/m³ H₂S μg/m³ NO μg/m³ NO₂ μg/m³ O₃ μg/m³ SO₂ μg/m³ PM1 μg/m³ PM2.5 μg/m³ PM10 μg/m³
Tuesday 14 July 2026
20:27 2 23.1 46 62,567 0 0 0 8.44 30.48 0 4.28 6.81 9.07
20:26 2 23.1 46 62,572 0 0 0 8.35 32.98 0 4.28 7.33 9.07
20:24 2 23.1 45 62,563 0 0 0 8.37 30.11 0 2.85 6.82 9.85
20:16 2 23.3 45 63,125 0 1.23 0 9.9 33.3 0 4.28 7.38 9.86
20:15 2 23.4 44 63,203 0 1.18 0 10.3 31.32 0 4.28 7.4 9.86
20:14 2 23.4 44 63,300 0 0.83 0 9.01 33.28 0 4.28 7.4 9.86
20:11 2 23.5 44 63,402 0 0 0 8.29 31.15 0 3.56 6.88 8.31
20:10 2 23.5 44 63,384 0 0.01 0 8.69 32.55 0 2.85 6.88 9.87
20:09 2 23.5 44 63,440 0 0 0 8.91 30.9 0 3.56 6.89 9.09
20:08 2 23.5 44 63,541 0 0 0 9.12 30.65 0 3.56 7.94 9.87
20:07 2 23.6 44 63,637 0 0.85 0 9.3 30.43 0 2.85 5.85 6.74
20:06 2 23.6 44 63,701 0 2.02 0 11.31 30.24 0 3.56 7.43 9.09
20:03 2 23.7 43 63,985 0 0 0 9.63 31.83 0 4.99 7.97 10.67
19:43 2 23.9 42 64,572 0 3.68 0 12.03 33.81 0 3.56 7.52 9.9
19:42 2 23.9 42 64,617 0 3.97 0 10.86 32.99 0 2.14 7.54 9.91
19:40 2 23.9 42 64,726 0 1.93 0 10.78 36.04 0 4.28 9.13 11.5
19:36 2 24 42 64,817 0 3.44 0 10.47 35.41 0 4.99 7.56 9.12
19:30 2 24 41 65,015 0 2.99 0 9.57 37.08 0 3.56 6.55 8.33
19:29 2 24.1 40 65,062 0 2.93 0 10.25 35.76 0 3.56 7.08 8.33
19:28 2 24.1 40 65,101 0 2.98 0 10.68 38.04 0 4.28 8.68 10.74